Time;durP1;ratioP1;P1;durP2;ratioP2;P2;SDS_P1;SDS_P2;PMS_P1;PMS_P2;Temp;Humidity;BMP_temperature;BMP_pressure;BME280_temperature;BME280_humidity;BME280_pressure;Samples;Min_cycle;Max_cycle;Signal;HPM_P1;HPM_P2
2021/08/28 00:02:54;;;;;;;3.45;3.15;;;;;;;14.50;100.00;102296.91;6338409;28;20618;-73
2021/08/28 00:05:58;;;;;;;7.32;3.58;;;;;;;14.48;100.00;102291.63;6339959;28;20190;-73
2021/08/28 00:09:03;;;;;;;3.25;3.00;;;;;;;14.52;100.00;102298.38;6339830;28;20224;-73
2021/08/28 00:12:07;;;;;;;3.13;2.90;;;;;;;14.50;100.00;102281.28;6339860;28;20194;-73
2021/08/28 00:15:12;;;;;;;5.45;3.60;;;;;;;14.58;100.00;102289.31;6338306;28;20478;-72
2021/08/28 00:18:16;;;;;;;3.15;3.05;;;;;;;14.51;100.00;102288.44;6339661;28;20182;-73
2021/08/28 00:21:21;;;;;;;4.55;3.60;;;;;;;14.50;100.00;102297.75;6338081;28;20187;-72
2021/08/28 00:24:27;;;;;;;3.55;3.30;;;;;;;14.53;100.00;102296.50;6338008;28;20359;-73
2021/08/28 00:27:31;;;;;;;4.50;3.03;;;;;;;14.47;100.00;102287.19;6339331;28;20183;-72
2021/08/28 00:30:35;;;;;;;5.95;3.38;;;;;;;14.49;100.00;102298.78;6337954;28;20369;-73
2021/08/28 00:33:39;;;;;;;5.03;3.22;;;;;;;14.57;100.00;102287.63;6339071;28;20194;-73
2021/08/28 00:36:43;;;;;;;4.88;3.38;;;;;;;14.54;100.00;102287.19;6338823;28;20249;-73
2021/08/28 00:39:51;;;;;;;4.03;3.15;;;;;;;14.61;100.00;102294.38;6339173;28;20263;-72
2021/08/28 00:42:58;;;;;;;6.22;3.28;;;;;;;14.57;100.00;102289.50;6337606;28;20207;-73
2021/08/28 00:46:03;;;;;;;3.13;3.03;;;;;;;14.53;100.00;102280.88;6338936;28;20236;-73
2021/08/28 00:49:07;;;;;;;3.70;3.60;;;;;;;14.59;100.00;102274.53;6337897;28;20183;-73
2021/08/28 00:52:12;;;;;;;3.53;3.22;;;;;;;14.61;100.00;102269.66;6319862;28;20448;-73
2021/08/28 00:55:17;;;;;;;3.63;3.33;;;;;;;14.59;100.00;102280.00;6338170;28;20186;-73
2021/08/28 00:58:23;;;;;;;3.65;3.30;;;;;;;14.48;100.00;102277.91;6338767;28;20183;-73
2021/08/28 01:01:34;;;;;;;6.15;3.13;;;;;;;14.53;100.00;102269.03;6319146;28;20202;-73
2021/08/28 01:04:46;;;;;;;4.47;3.55;;;;;;;14.48;100.00;102283.38;6318988;28;20230;-74
2021/08/28 01:08:00;;;;;;;3.17;3.08;;;;;;;14.55;100.00;102262.28;6319784;28;20199;-73
2021/08/28 01:11:30;;;;;;;3.83;3.38;;;;;;;14.52;100.00;102281.91;6337159;28;20183;-73
2021/08/28 01:14:39;;;;;;;3.40;3.28;;;;;;;14.45;100.00;102267.31;6319032;28;20207;-73
2021/08/28 01:17:48;;;;;;;3.72;3.53;;;;;;;14.39;100.00;102273.63;6336547;28;20276;-73
2021/08/28 01:21:02;;;;;;;3.75;3.47;;;;;;;14.46;100.00;102277.25;6320025;28;20221;-73
2021/08/28 01:24:31;;;;;;;3.90;3.70;;;;;;;14.44;100.00;102271.13;6299435;28;20290;-73
2021/08/28 01:27:50;;;;;;;3.75;3.47;;;;;;;14.42;100.00;102262.25;6336987;28;20190;-74
2021/08/28 01:30:56;;;;;;;4.55;3.58;;;;;;;14.49;100.00;102262.25;6335785;28;20513;-73
2021/08/28 01:34:01;;;;;;;5.72;3.58;;;;;;;14.47;100.00;102265.22;6318456;28;20505;-73
2021/08/28 01:37:12;;;;;;;3.13;2.92;;;;;;;14.56;100.00;102247.47;6320355;28;20189;-73
2021/08/28 01:40:32;;;;;;;3.28;3.17;;;;;;;14.57;100.00;102254.66;6336215;28;20273;-73
2021/08/28 01:43:38;;;;;;;4.60;3.67;;;;;;;14.42;100.00;102243.03;6318609;28;20226;-73
2021/08/28 01:46:48;;;;;;;6.55;3.20;;;;;;;14.37;100.00;102256.53;6318603;28;20199;-73
2021/08/28 01:49:54;;;;;;;3.45;3.25;;;;;;;14.43;100.00;102264.75;6334980;28;20461;-73
2021/08/28 01:52:59;;;;;;;3.80;3.60;;;;;;;14.39;100.00;102266.25;6337391;28;20205;-73
2021/08/28 01:56:10;;;;;;;3.97;3.78;;;;;;;14.45;100.00;102259.09;6318435;28;20288;-73
2021/08/28 01:59:18;;;;;;;3.28;3.00;;;;;;;14.47;100.00;102259.72;6337272;28;20220;-74
2021/08/28 02:02:52;;;;;;;5.35;3.50;;;;;;;14.41;100.00;102263.28;6323235;28;20233;-74
2021/08/28 02:06:02;;;;;;;4.30;3.63;;;;;;;14.33;100.00;102256.09;6323601;28;20199;-73
2021/08/28 02:09:19;;;;;;;3.53;3.22;;;;;;;14.34;100.00;102248.69;6324317;28;20198;-73
2021/08/28 02:12:34;;;;;;;4.22;3.92;;;;;;;14.44;100.00;102246.41;6323754;28;20198;-73
2021/08/28 02:15:45;;;;;;;3.55;3.22;;;;;;;14.40;100.00;102247.88;6324187;28;20273;-73
2021/08/28 02:18:55;;;;;;;6.15;3.08;;;;;;;14.29;100.00;102252.03;6323648;28;20198;-73
2021/08/28 02:22:29;;;;;;;3.75;3.45;;;;;;;14.28;100.00;102244.00;6342007;28;20275;-73
2021/08/28 02:26:19;;;;;;;6.07;3.70;;;;;;;14.39;100.00;102241.53;6340824;28;20502;-73
2021/08/28 02:29:34;;;;;;;4.63;3.58;;;;;;;14.48;100.00;102233.09;6324022;28;20230;-73
2021/08/28 02:32:40;;;;;;;4.03;3.72;;;;;;;14.47;100.00;102245.97;6322873;28;20520;-73
2021/08/28 02:35:45;;;;;;;4.05;3.63;;;;;;;14.54;100.00;102255.06;6323109;28;20257;-73
2021/08/28 02:38:53;;;;;;;4.78;3.58;;;;;;;14.52;100.00;102240.72;6323505;28;20244;-72
2021/08/28 02:42:01;;;;;;;3.90;3.58;;;;;;;14.40;100.00;102239.66;6323326;28;20199;-73
2021/08/28 02:45:07;;;;;;;4.32;3.15;;;;;;;14.50;100.00;102226.34;6323584;28;20222;-73
2021/08/28 02:48:17;;;;;;;3.53;3.33;;;;;;;14.48;100.00;102236.69;6322303;28;20199;-72
2021/08/28 02:51:23;;;;;;;3.42;3.22;;;;;;;14.37;100.00;102231.81;6341503;28;20182;-73
2021/08/28 02:54:29;;;;;;;4.10;3.22;;;;;;;14.40;100.00;102225.91;6322447;28;20234;-73
2021/08/28 02:57:37;;;;;;;3.50;3.20;;;;;;;14.37;100.00;102226.31;6322629;28;20241;-73
2021/08/28 03:00:44;;;;;;;3.20;3.10;;;;;;;14.40;100.00;102223.16;6339963;28;20470;-73
2021/08/28 03:03:49;;;;;;;3.50;3.40;;;;;;;14.44;100.00;102227.19;6322515;28;20260;-73
2021/08/28 03:07:00;;;;;;;3.58;3.30;;;;;;;14.52;100.00;102223.38;6322336;28;20199;-73
2021/08/28 03:10:13;;;;;;;3.63;3.30;;;;;;;14.53;100.00;102220.44;6322997;28;20205;-73
2021/08/28 03:13:18;;;;;;;3.67;3.40;;;;;;;14.39;100.00;102225.06;6341189;28;20187;-72
2021/08/28 03:16:25;;;;;;;6.47;3.53;;;;;;;14.40;100.00;102236.91;6322019;28;20206;-73
2021/08/28 03:19:33;;;;;;;4.10;3.42;;;;;;;14.51;100.00;102228.03;6322193;28;20221;-73
2021/08/28 03:22:40;;;;;;;3.65;3.45;;;;;;;14.40;100.00;102225.91;6321895;28;20274;-73
2021/08/28 03:25:45;;;;;;;3.45;3.25;;;;;;;14.54;100.00;102219.38;6340488;28;20242;-72
2021/08/28 03:28:52;;;;;;;4.85;3.20;;;;;;;14.40;100.00;102225.91;6321775;28;20236;-73
2021/08/28 03:32:00;;;;;;;3.20;3.10;;;;;;;14.46;100.00;102225.06;6321629;28;20236;-73
2021/08/28 03:35:07;;;;;;;4.93;3.45;;;;;;;14.50;100.00;102226.34;6322875;28;20203;-73
2021/08/28 03:38:15;;;;;;;4.78;3.60;;;;;;;14.43;100.00;102214.53;6322565;28;20205;-73
2021/08/28 03:41:19;;;;;;;4.75;3.45;;;;;;;14.41;100.00;102211.97;6338491;28;20221;-73
2021/08/28 03:44:25;;;;;;;6.45;3.10;;;;;;;14.40;100.00;102221.28;6322335;28;20229;-73
2021/08/28 03:47:30;;;;;;;3.95;3.45;;;;;;;14.43;100.00;102204.34;6340421;28;20190;-73
2021/08/28 03:50:34;;;;;;;4.80;3.47;;;;;;;14.39;100.00;102207.72;6321555;28;20198;-73
2021/08/28 03:53:42;;;;;;;4.05;3.63;;;;;;;14.34;100.00;102204.78;6321763;28;20261;-73
2021/08/28 03:56:47;;;;;;;3.58;3.47;;;;;;;14.38;100.00;102217.00;6321626;28;20206;-73
2021/08/28 03:59:52;;;;;;;4.07;3.80;;;;;;;14.32;100.00;102218.72;6320730;28;20338;-73
2021/08/28 04:02:58;;;;;;;3.72;3.40;;;;;;;14.27;100.00;102231.34;6320708;28;20233;-73
2021/08/28 04:06:04;;;;;;;3.58;3.22;;;;;;;14.31;100.00;102216.16;6321441;28;20219;-72
2021/08/28 04:09:13;;;;;;;5.00;3.47;;;;;;;14.37;100.00;102231.81;6321282;28;20230;-72
2021/08/28 04:12:18;;;;;;;3.72;3.50;;;;;;;14.29;100.00;102218.25;6338471;28;20183;-72
2021/08/28 04:15:30;;;;;;;4.20;3.92;;;;;;;14.41;100.00;102211.09;6320160;28;20202;-73
2021/08/28 04:18:50;;;;;;;3.97;3.53;;;;;;;14.41;100.00;102222.94;6320220;28;20199;-73
2021/08/28 04:22:20;;;;;;;4.00;3.70;;;;;;;14.34;100.00;102226.72;6320871;28;20208;-73
2021/08/28 04:25:41;;;;;;;4.60;3.78;;;;;;;14.30;100.00;102230.94;6338170;28;20541;-73
2021/08/28 04:28:56;;;;;;;4.70;3.67;;;;;;;14.34;100.00;102211.13;6320936;28;20241;-73
2021/08/28 04:32:02;;;;;;;7.10;4.07;;;;;;;14.36;100.00;102224.63;6320896;28;20203;-73
2021/08/28 04:35:08;;;;;;;6.10;3.78;;;;;;;14.39;100.00;102210.47;6320738;28;20202;-74
2021/08/28 04:38:16;;;;;;;5.25;4.00;;;;;;;14.40;100.00;102225.91;6320384;28;20199;-73
2021/08/28 04:41:23;;;;;;;4.20;3.80;;;;;;;14.23;100.00;102219.06;6320310;28;20205;-73
2021/08/28 04:44:27;;;;;;;4.50;4.10;;;;;;;14.41;100.00;102216.59;6320403;28;20309;-74
2021/08/28 04:47:32;;;;;;;4.20;3.80;;;;;;;14.36;100.00;102213.63;6319633;28;20206;-73
2021/08/28 04:50:36;;;;;;;4.72;3.90;;;;;;;14.33;100.00;102219.53;6320013;28;20206;-73
2021/08/28 04:53:41;;;;;;;5.20;4.30;;;;;;;14.36;100.00;102219.97;6319497;28;20199;-73
2021/08/28 04:56:47;;;;;;;4.90;4.18;;;;;;;14.44;100.00;102221.69;6338329;28;20187;-73
2021/08/28 04:59:51;;;;;;;4.30;3.95;;;;;;;14.50;100.00;102220.84;6319470;28;20220;-73
2021/08/28 05:03:17;;;;;;;5.47;4.10;;;;;;;14.36;100.00;102232.84;6337617;28;20227;-73
2021/08/28 05:06:21;;;;;;;4.65;4.22;;;;;;;14.33;100.00;102225.03;6337076;28;20374;-73
2021/08/28 05:09:26;;;;;;;5.18;4.05;;;;;;;14.38;100.00;102206.03;6318887;28;20487;-73
2021/08/28 05:12:32;;;;;;;6.90;3.80;;;;;;;14.39;100.00;102207.72;6319691;28;20478;-73
2021/08/28 05:15:52;;;;;;;4.65;4.38;;;;;;;14.36;100.00;102213.63;6319327;28;20203;-73
2021/08/28 05:18:57;;;;;;;8.20;4.30;;;;;;;14.43;100.00;102214.53;6337834;28;20255;-73
2021/08/28 05:22:03;;;;;;;5.82;4.05;;;;;;;14.37;100.00;102220.84;6319920;28;20262;-73
2021/08/28 05:25:46;;;;;;;4.82;4.32;;;;;;;14.52;100.00;102218.75;6235073;28;20559;-73
2021/08/28 05:28:52;;;;;;;4.60;4.25;;;;;;;14.30;100.00;102215.28;6219059;28;20616;-73
2021/08/28 05:31:56;;;;;;;4.35;4.15;;;;;;;14.39;100.00;102202.25;6319824;28;20309;-73
2021/08/28 05:35:00;;;;;;;5.90;4.45;;;;;;;14.31;100.00;102205.19;6336361;28;20245;-73
2021/08/28 05:38:20;;;;;;;5.70;4.60;;;;;;;14.25;100.00;102201.34;6337969;28;20265;-72
2021/08/28 05:41:26;;;;;;;4.95;4.50;;;;;;;14.36;100.00;102194.41;6318812;28;20198;-72
2021/08/28 05:44:32;;;;;;;5.38;4.63;;;;;;;14.30;100.00;102192.50;6318248;28;20519;-74
2021/08/28 05:47:37;;;;;;;5.30;4.82;;;;;;;14.36;100.00;102187.03;6318659;28;20326;-73
2021/08/28 05:50:48;;;;;;;5.68;4.90;;;;;;;14.50;100.00;102198.88;6318478;28;20553;-73
2021/08/28 05:53:53;;;;;;;5.22;4.65;;;;;;;14.50;100.00;102198.88;6318191;28;20608;-72
2021/08/28 05:56:57;;;;;;;6.68;4.93;;;;;;;14.52;100.00;102195.91;6337544;28;20187;-72
2021/08/28 06:00:04;;;;;;;4.70;4.40;;;;;;;14.42;100.00;102193.59;6318761;28;20198;-72
2021/08/28 06:03:18;;;;;;;5.95;5.07;;;;;;;14.29;100.00;102191.66;6337748;28;20242;-72
2021/08/28 06:06:29;;;;;;;5.57;4.95;;;;;;;14.36;100.00;102202.66;6318099;28;20293;-72
2021/08/28 06:10:10;;;;;;;4.93;4.45;;;;;;;14.47;100.00;102198.44;6214731;28;20201;-73
2021/08/28 06:13:40;;;;;;;4.78;4.47;;;;;;;14.57;100.00;102196.13;6337833;28;20221;-73
2021/08/28 06:16:53;;;;;;;6.15;5.05;;;;;;;14.61;100.00;102200.97;6318788;28;20265;-73
2021/08/28 06:20:02;;;;;;;7.07;5.65;;;;;;;14.57;100.00;102194.22;6318193;28;20244;-73
2021/08/28 06:23:07;;;;;;;6.88;5.13;;;;;;;14.62;100.00;102196.34;6337345;28;20190;-73
2021/08/28 06:26:32;;;;;;;6.47;5.05;;;;;;;14.59;100.00;102197.59;6322563;28;20285;-73
2021/08/28 06:29:37;;;;;;;6.10;4.85;;;;;;;14.58;100.00;102212.41;6317814;28;20261;-73
2021/08/28 06:32:43;;;;;;;5.55;5.15;;;;;;;14.58;100.00;102204.19;6318507;28;20269;-73
2021/08/28 06:35:49;;;;;;;5.15;4.75;;;;;;;14.55;100.00;102201.00;6317741;28;20203;-73
2021/08/28 06:39:19;;;;;;;6.72;5.80;;;;;;;14.62;100.00;102196.34;6318399;28;20212;-73
2021/08/28 06:42:50;;;;;;;7.18;5.68;;;;;;;14.62;100.00;102202.69;6289388;28;20261;-72
2021/08/28 06:46:23;;;;;;;6.45;5.30;;;;;;;14.72;100.00;102202.25;6336964;28;20217;-73
2021/08/28 06:49:48;;;;;;;5.97;5.30;;;;;;;14.71;100.00;102206.94;6341036;28;20183;-73
2021/08/28 06:53:11;;;;;;;7.63;4.95;;;;;;;14.77;100.00;102206.06;6341696;28;20228;-72
2021/08/28 06:56:21;;;;;;;6.40;5.80;;;;;;;14.73;100.00;102198.47;6340155;28;20482;-73
2021/08/28 06:59:52;;;;;;;6.65;5.72;;;;;;;14.60;100.00;102215.78;6321581;28;20265;-73
2021/08/28 07:03:19;;;;;;;6.40;5.80;;;;;;;14.63;100.00;102209.88;6311498;28;20525;-72
2021/08/28 07:06:25;;;;;;;7.72;5.85;;;;;;;14.70;100.00;102209.88;6339097;28;20309;-73
2021/08/28 07:09:30;;;;;;;6.68;6.05;;;;;;;14.65;100.00;102207.78;6323051;28;20261;-73
2021/08/28 07:12:35;;;;;;;7.07;5.55;;;;;;;14.75;100.00;102213.69;6322268;28;20205;-73
2021/08/28 07:15:40;;;;;;;7.78;6.03;;;;;;;14.63;100.00;102209.03;6339716;28;20369;-73
2021/08/28 07:18:49;;;;;;;10.00;6.00;;;;;;;14.69;100.00;102203.53;6339745;28;20478;-73
2021/08/28 07:21:55;;;;;;;11.90;6.05;;;;;;;14.69;100.00;102209.03;6341067;28;20246;-73
2021/08/28 07:25:01;;;;;;;9.90;5.70;;;;;;;14.71;100.00;102206.09;6321970;28;20539;-73
2021/08/28 07:28:10;;;;;;;6.85;6.18;;;;;;;14.80;100.00;102189.16;6321285;28;20227;-74
2021/08/28 07:31:33;;;;;;;9.43;6.15;;;;;;;14.77;100.00;102194.22;6339364;28;20450;-72
2021/08/28 07:34:38;;;;;;;8.90;5.63;;;;;;;14.86;100.00;102191.06;6321305;28;20213;-72
2021/08/28 07:37:45;;;;;;;7.63;6.10;;;;;;;14.77;100.00;102189.59;6322035;28;20202;-72
2021/08/28 07:40:49;;;;;;;8.50;6.15;;;;;;;14.86;100.00;102188.31;6321553;28;20220;-73
2021/08/28 07:43:53;;;;;;;7.10;5.50;;;;;;;14.89;100.00;102187.06;6321319;28;20498;-73
2021/08/28 07:46:58;;;;;;;6.03;5.40;;;;;;;14.94;100.00;102190.84;6339720;28;20215;-73
2021/08/28 07:50:09;;;;;;;10.27;6.30;;;;;;;14.99;100.00;102188.31;6321486;28;20198;-72
2021/08/28 07:53:15;;;;;;;8.88;6.00;;;;;;;14.95;100.00;102192.53;6338160;28;20406;-73
2021/08/28 07:56:27;;;;;;;7.00;6.03;;;;;;;15.02;100.00;102187.84;6321084;28;20195;-72
2021/08/28 07:59:32;;;;;;;9.38;6.13;;;;;;;15.03;100.00;102184.06;6320763;28;20198;-72
2021/08/28 08:02:39;;;;;;;7.85;6.05;;;;;;;14.99;100.00;102182.81;6338841;28;20205;-72
2021/08/28 08:05:57;;;;;;;6.93;5.90;;;;;;;14.97;100.00;102190.41;6320487;28;20230;-73
2021/08/28 08:09:29;;;;;;;8.43;5.95;;;;;;;15.00;100.00;102179.00;6308293;28;20283;-72
2021/08/28 08:12:52;;;;;;;7.28;6.50;;;;;;;15.00;100.00;102195.47;6338535;28;20195;-72
2021/08/28 08:16:15;;;;;;;7.05;5.78;;;;;;;15.14;100.00;102192.72;6339819;28;20215;-73
2021/08/28 08:19:47;;;;;;;11.57;6.15;;;;;;;15.15;100.00;102202.66;6321261;28;20198;-73
2021/08/28 08:23:27;;;;;;;8.98;6.30;;;;;;;15.08;100.00;102199.91;6192453;28;20546;-74
2021/08/28 08:26:51;;;;;;;8.35;6.57;;;;;;;15.11;100.00;102195.88;6339281;28;20252;-72
2021/08/28 08:30:15;;;;;;;6.55;5.55;;;;;;;15.02;100.00;102198.84;6339177;28;20228;-74
2021/08/28 08:33:25;;;;;;;11.52;5.82;;;;;;;15.18;100.00;102192.06;6321093;28;20202;-72
2021/08/28 08:36:31;;;;;;;9.02;6.93;;;;;;;15.16;100.00;102193.34;6320143;28;20570;-74
2021/08/28 08:39:36;;;;;;;9.55;6.07;;;;;;;15.11;100.00;102202.25;6320193;28;20520;-72
2021/08/28 08:42:43;;;;;;;9.63;6.60;;;;;;;15.18;100.00;102196.72;6319948;28;20475;-73
2021/08/28 08:45:47;;;;;;;7.15;5.78;;;;;;;15.15;100.00;102202.66;6320686;28;20199;-72
2021/08/28 08:48:52;;;;;;;6.22;5.72;;;;;;;15.12;100.00;102186.59;6338424;28;20211;-72
2021/08/28 08:51:58;;;;;;;11.93;6.10;;;;;;;15.15;100.00;102186.16;6320222;28;20198;-73
2021/08/28 08:55:10;;;;;;;9.35;6.30;;;;;;;15.13;100.00;102182.75;6337762;28;20182;-73
2021/08/28 08:58:17;;;;;;;7.80;6.53;;;;;;;15.15;100.00;102186.16;6337051;28;20265;-74
2021/08/28 09:01:32;;;;;;;7.18;6.43;;;;;;;15.07;100.00;102200.13;6318710;28;20494;-73
2021/08/28 09:05:05;;;;;;;8.70;6.10;;;;;;;15.07;100.00;102189.16;6337629;28;20241;-72
2021/08/28 09:08:10;;;;;;;8.60;6.75;;;;;;;15.19;100.00;102198.41;6319619;28;20219;-74
2021/08/28 09:11:23;;;;;;;10.45;6.78;;;;;;;15.23;100.00;102194.19;6338129;28;20183;-74
2021/08/28 09:14:30;;;;;;;10.13;6.25;;;;;;;15.21;100.00;102197.13;6336836;28;20183;-75
2021/08/28 09:17:35;;;;;;;9.20;6.60;;;;;;;15.22;100.00;102187.00;6337764;28;20187;-73
2021/08/28 09:20:40;;;;;;;8.90;6.50;;;;;;;15.18;100.00;102186.56;6336649;28;20466;-77
2021/08/28 09:23:44;;;;;;;7.75;6.15;;;;;;;15.17;100.00;102200.53;6338119;28;20182;-75
2021/08/28 09:26:49;;;;;;;9.50;6.00;;;;;;;15.26;100.00;102188.25;6336867;28;20375;-73
2021/08/28 09:29:55;;;;;;;9.27;6.22;;;;;;;15.32;100.00;102191.00;6337746;28;20275;-74
2021/08/28 09:33:00;;;;;;;6.72;6.10;;;;;;;15.22;100.00;102187.00;6337558;28;20214;-74
2021/08/28 09:36:09;;;;;;;8.65;5.72;;;;;;;15.23;100.00;102177.69;6336883;28;20186;-73
2021/08/28 09:39:14;;;;;;;6.10;5.55;;;;;;;15.27;100.00;102178.94;6337577;28;20193;-73
2021/08/28 09:42:20;;;;;;;9.23;6.30;;;;;;;15.29;100.00;102176.81;6337384;28;20183;-73
2021/08/28 09:45:26;;;;;;;10.07;6.35;;;;;;;15.38;100.00;102189.28;6336490;28;20381;-73
2021/08/28 09:48:39;;;;;;;6.75;6.13;;;;;;;15.47;100.00;102196.25;6337468;28;20238;-74
2021/08/28 09:51:45;;;;;;;7.22;6.35;;;;;;;15.43;100.00;102189.47;6336358;28;20182;-75
2021/08/28 09:54:54;;;;;;;7.78;6.25;;;;;;;15.38;100.00;102186.53;6337300;28;20222;-74
2021/08/28 09:57:58;;;;;;;6.35;5.70;;;;;;;15.37;100.00;102190.34;6337363;28;20277;-74
2021/08/28 10:01:06;;;;;;;10.60;6.25;;;;;;;15.45;100.00;102181.84;6337272;28;20198;-74
2021/08/28 10:04:11;;;;;;;6.78;6.00;;;;;;;15.48;100.00;102181.47;6336111;28;20258;-74
2021/08/28 10:07:20;;;;;;;8.15;6.10;;;;;;;15.43;100.00;102192.22;6336116;28;20467;-74
2021/08/28 10:10:25;;;;;;;10.20;6.45;;;;;;;15.39;100.00;102182.69;6337327;28;20207;-74
2021/08/28 10:13:32;;;;;;;6.80;6.10;;;;;;;15.49;100.00;102188.63;6337170;28;20186;-74
2021/08/28 10:16:37;;;;;;;9.18;6.32;;;;;;;15.45;100.00;102181.84;6336174;28;20466;-74
2021/08/28 10:19:44;;;;;;;7.15;6.25;;;;;;;15.46;100.00;102183.56;6337274;28;20249;-74
2021/08/28 10:22:54;;;;;;;7.88;6.78;;;;;;;15.47;100.00;102182.50;6339980;28;20489;-74
2021/08/28 10:25:59;;;;;;;11.43;8.05;;;;;;;15.68;100.00;102181.38;6341225;28;20246;-74
2021/08/28 10:29:06;;;;;;;7.95;6.00;;;;;;;15.56;100.00;102186.72;6341306;28;20342;-74
2021/08/28 10:32:13;;;;;;;8.27;5.82;;;;;;;15.54;100.00;102178.66;6342196;28;20182;-74
2021/08/28 10:35:19;;;;;;;6.25;5.55;;;;;;;15.58;100.00;102181.84;6341990;28;20220;-74
2021/08/28 10:38:24;;;;;;;6.80;6.20;;;;;;;15.64;100.00;102175.44;6341122;28;20471;-74
2021/08/28 10:41:29;;;;;;;10.10;5.88;;;;;;;15.65;100.00;102178.00;6340625;28;20501;-74
2021/08/28 10:44:37;;;;;;;10.07;6.65;;;;;;;15.65;100.00;102179.91;6341883;28;20182;-74
2021/08/28 10:47:45;;;;;;;8.98;6.18;;;;;;;15.67;100.00;102180.50;6323657;28;20199;-74
2021/08/28 10:50:52;;;;;;;22.95;7.15;;;;;;;15.72;100.00;102183.47;6322447;28;20315;-74
2021/08/28 10:53:57;;;;;;;8.82;6.05;;;;;;;15.73;100.00;102179.66;6340350;28;20189;-74
2021/08/28 10:57:02;;;;;;;8.30;6.63;;;;;;;15.82;100.00;102178.31;6341279;28;20262;-74
2021/08/28 11:00:11;;;;;;;7.90;6.18;;;;;;;15.84;100.00;102192.75;6340126;28;20361;-74
2021/08/28 11:03:30;;;;;;;10.77;5.97;;;;;;;15.79;100.00;102184.28;6341361;28;20233;-74
2021/08/28 11:06:35;;;;;;;6.00;5.40;;;;;;;15.79;100.00;102187.03;6341082;28;20183;-74
2021/08/28 11:10:05;;;;;;;7.30;5.25;;;;;;;15.91;100.00;102193.53;6341143;28;20214;-74
2021/08/28 11:13:14;;;;;;;9.43;6.00;;;;;;;15.91;100.00;102199.03;6339769;28;20183;-74
2021/08/28 11:16:54;;;;;;;5.88;5.40;;;;;;;15.91;100.00;102182.53;6340784;28;20189;-74
2021/08/28 11:20:01;;;;;;;7.05;5.22;;;;;;;15.91;100.00;102193.53;6339659;28;20377;-74
2021/08/28 11:23:11;;;;;;;6.03;5.65;;;;;;;15.99;100.00;102201.56;6340102;28;20518;-74
2021/08/28 11:26:34;;;;;;;7.20;5.55;;;;;;;15.94;100.00;102215.13;6339726;28;20482;-74
2021/08/28 11:29:50;;;;;;;10.25;5.60;;;;;;;15.98;100.00;102204.50;6340579;28;20309;-74
2021/08/28 11:33:01;;;;;;;6.60;5.72;;;;;;;16.05;100.00;102217.16;6338599;28;20190;-74
2021/08/28 11:36:08;;;;;;;6.88;5.95;;;;;;;15.81;100.00;102209.69;6340345;28;20224;-74
2021/08/28 11:39:23;;;;;;;8.43;6.05;;;;;;;15.98;100.00;102207.25;6339200;28;20474;-74
2021/08/28 11:42:29;;;;;;;7.50;6.15;;;;;;;15.95;100.00;102216.78;6340501;28;20222;-74
2021/08/28 11:45:37;;;;;;;7.75;6.20;;;;;;;16.01;100.00;102207.69;6340092;28;20183;-74
2021/08/28 11:48:46;;;;;;;6.88;6.28;;;;;;;16.03;100.00;102205.53;6340221;28;20250;-74
2021/08/28 11:51:52;;;;;;;6.72;6.13;;;;;;;16.00;100.00;102214.22;6339787;28;20183;-74
2021/08/28 11:55:00;;;;;;;6.70;6.00;;;;;;;16.08;100.00;102216.72;6339687;28;20220;-74
2021/08/28 11:58:07;;;;;;;8.27;6.30;;;;;;;16.13;100.00;102214.16;6339238;28;20183;-74
2021/08/28 12:01:12;;;;;;;12.40;6.70;;;;;;;16.09;100.00;102218.44;6339945;28;20237;-74
2021/08/28 12:04:20;;;;;;;8.80;6.05;;;;;;;15.96;100.00;102218.50;6339189;28;20223;-74
2021/08/28 12:07:29;;;;;;;9.10;6.93;;;;;;;16.02;100.00;102216.78;6339647;28;20183;-74
2021/08/28 12:10:34;;;;;;;12.63;7.40;;;;;;;16.07;100.00;102219.72;6339396;28;20246;-74
2021/08/28 12:13:46;;;;;;;13.18;8.60;;;;;;;16.09;100.00;102223.94;6339789;28;20183;-74
2021/08/28 12:16:50;;;;;;;8.57;7.13;;;;;;;16.03;100.00;102213.78;6339768;28;20222;-74
2021/08/28 12:19:59;;;;;;;7.97;6.60;;;;;;;16.02;100.00;102212.09;6339504;28;20218;-74
2021/08/28 12:23:05;;;;;;;8.57;7.25;;;;;;;16.10;100.00;102214.59;6339756;28;20216;-74
2021/08/28 12:26:15;;;;;;;7.70;6.97;;;;;;;16.16;100.00;102213.72;6338980;28;20190;-74
2021/08/28 12:29:27;;;;;;;8.10;6.63;;;;;;;16.25;100.00;102214.31;6338968;28;20213;-74
2021/08/28 12:32:31;;;;;;;12.13;7.15;;;;;;;16.20;100.00;102214.97;6339255;28;20252;-74
2021/08/28 12:35:36;;;;;;;10.20;7.22;;;;;;;16.28;100.00;102222.97;6337870;28;20473;-74
2021/08/28 12:38:42;;;;;;;9.35;7.30;;;;;;;16.16;100.00;102218.38;6337725;28;20538;-74
2021/08/28 12:41:46;;;;;;;12.20;7.82;;;;;;;16.12;100.00;102211.63;6337736;28;20485;-74
2021/08/28 12:44:52;;;;;;;11.65;7.07;;;;;;;16.10;100.00;102214.59;6338093;28;20194;-74
2021/08/28 12:48:04;;;;;;;7.35;6.65;;;;;;;16.14;100.00;102207.59;6337554;28;20474;-74
2021/08/28 12:51:10;;;;;;;11.02;7.15;;;;;;;16.21;100.00;102219.41;6337278;28;20377;-74
2021/08/28 12:54:23;;;;;;;9.18;6.63;;;;;;;16.31;99.75;102226.38;6336986;28;20187;-74
2021/08/28 12:57:29;;;;;;;8.57;7.45;;;;;;;16.27;99.25;102215.78;6338624;28;20190;-74
2021/08/28 13:00:41;;;;;;;7.60;6.88;;;;;;;16.35;99.14;102205.56;6337448;28;20390;-73
2021/08/28 13:03:49;;;;;;;10.57;6.97;;;;;;;16.14;99.30;102204.84;6337230;28;20230;-72
2021/08/28 13:07:13;;;;;;;7.13;6.43;;;;;;;16.18;99.78;102211.59;6338528;28;20245;-73
2021/08/28 13:10:20;;;;;;;8.07;7.28;;;;;;;16.26;99.29;102208.56;6337977;28;20369;-73
2021/08/28 13:13:24;;;;;;;7.63;6.90;;;;;;;16.18;99.61;102206.09;6336953;28;20474;-74
2021/08/28 13:16:30;;;;;;;10.77;7.38;;;;;;;16.29;99.01;102191.63;6337058;28;20183;-73
2021/08/28 13:19:35;;;;;;;10.98;6.40;;;;;;;16.33;99.07;102202.19;6337529;28;20256;-74
2021/08/28 13:22:48;;;;;;;10.52;6.43;;;;;;;16.24;99.37;102210.72;6337955;28;20250;-73
2021/08/28 13:26:00;;;;;;;7.25;6.43;;;;;;;16.26;100.00;102207.72;6338084;28;20483;-73
2021/08/28 13:29:24;;;;;;;7.32;6.63;;;;;;;16.25;98.45;102212.38;6337645;28;20183;-73
2021/08/28 13:32:28;;;;;;;7.25;6.55;;;;;;;16.11;99.82;102207.19;6337889;28;20238;-74
2021/08/28 13:35:35;;;;;;;6.70;6.18;;;;;;;16.20;99.87;102203.13;6337234;28;20257;-74
2021/08/28 13:38:42;;;;;;;9.50;6.40;;;;;;;16.31;98.63;102205.16;6337231;28;20214;-74
2021/08/28 13:41:48;;;;;;;8.10;6.28;;;;;;;16.35;98.66;102194.56;6337714;28;20186;-74
2021/08/28 13:44:53;;;;;;;8.38;6.82;;;;;;;16.26;98.43;102205.81;6336481;28;20246;-74
2021/08/28 13:47:57;;;;;;;8.75;6.95;;;;;;;16.24;98.50;102199.69;6337683;28;20193;-73
2021/08/28 13:51:01;;;;;;;9.55;6.43;;;;;;;16.26;98.80;102192.06;6337303;28;20308;-74
2021/08/28 13:54:06;;;;;;;9.02;6.47;;;;;;;16.17;98.96;102193.41;6337125;28;20191;-74
2021/08/28 13:57:11;;;;;;;8.32;6.53;;;;;;;16.35;98.66;102189.03;6337113;28;20190;-74
2021/08/28 14:00:17;;;;;;;8.07;6.63;;;;;;;16.19;98.95;102196.78;6337209;28;20224;-73
2021/08/28 14:03:21;;;;;;;9.88;6.97;;;;;;;16.20;99.27;102181.91;6336940;28;20244;-74
2021/08/28 14:06:28;;;;;;;7.90;6.68;;;;;;;16.04;99.21;102187.13;6337184;28;20190;-74
2021/08/28 14:09:34;;;;;;;9.57;7.30;;;;;;;16.17;99.54;102176.03;6337500;28;20198;-74
2021/08/28 14:12:41;;;;;;;11.52;7.82;;;;;;;16.20;99.33;102181.09;6337405;28;20211;-74
2021/08/28 14:15:45;;;;;;;9.93;6.80;;;;;;;16.12;99.35;102181.34;6336609;28;20235;-73
2021/08/28 14:18:50;;;;;;;14.18;7.22;;;;;;;16.21;99.51;102178.09;6336427;28;20189;-73
2021/08/28 14:21:57;;;;;;;11.38;6.82;;;;;;;16.12;98.58;102184.97;6337402;28;20186;-73
2021/08/28 14:25:02;;;;;;;9.35;7.20;;;;;;;16.12;99.29;102184.97;6335864;28;20215;-73
2021/08/28 14:28:09;;;;;;;7.57;6.78;;;;;;;16.07;99.25;102176.53;6336041;28;20190;-73
2021/08/28 14:31:13;;;;;;;8.10;7.00;;;;;;;16.21;98.79;102182.75;6336219;28;20319;-73
2021/08/28 14:34:18;;;;;;;11.90;7.55;;;;;;;16.17;98.30;102176.88;6336913;28;20183;-73